sensor_id;sensor_type;location;lat;lon;timestamp;noise_LAeq;noise_LA_min;noise_LA_max;noise_LA01;noise_LA95
77729;Laerm;68312;53.502;10.030;2023-12-20T00:00:15;102.15;97.83;106.05;;
77729;Laerm;68312;53.502;10.030;2023-12-20T00:00:46;103.40;98.13;106.29;;
77729;Laerm;68312;53.502;10.030;2023-12-20T00:01:16;102.75;96.43;106.27;;
77729;Laerm;68312;53.502;10.030;2023-12-20T00:01:47;102.21;97.98;105.43;;
77729;Laerm;68312;53.502;10.030;2023-12-20T00:02:17;103.94;100.64;106.18;;
77729;Laerm;68312;53.502;10.030;2023-12-20T00:02:48;104.23;100.29;106.44;;
77729;Laerm;68312;53.502;10.030;2023-12-20T00:03:18;102.38;99.08;105.99;;
77729;Laerm;68312;53.502;10.030;2023-12-20T00:03:49;101.81;97.31;106.18;;
77729;Laerm;68312;53.502;10.030;2023-12-20T00:04:19;101.27;97.23;105.99;;
77729;Laerm;68312;53.502;10.030;2023-12-20T00:04:50;104.24;99.00;109.37;;
77729;Laerm;68312;53.502;10.030;2023-12-20T00:05:20;104.21;98.34;106.34;;
77729;Laerm;68312;53.502;10.030;2023-12-20T00:05:51;103.68;98.59;106.28;;
77729;Laerm;68312;53.502;10.030;2023-12-20T00:06:21;104.07;99.88;106.61;;
77729;Laerm;68312;53.502;10.030;2023-12-20T00:06:52;102.15;98.29;105.88;;
77729;Laerm;68312;53.502;10.030;2023-12-20T00:07:22;103.26;98.34;106.55;;
77729;Laerm;68312;53.502;10.030;2023-12-20T00:07:53;104.51;100.15;107.78;;
77729;Laerm;68312;53.502;10.030;2023-12-20T00:08:23;104.85;101.12;107.40;;
77729;Laerm;68312;53.502;10.030;2023-12-20T00:08:54;105.46;101.58;106.84;;
77729;Laerm;68312;53.502;10.030;2023-12-20T00:09:24;104.89;98.88;106.55;;
77729;Laerm;68312;53.502;10.030;2023-12-20T00:09:55;104.95;99.68;108.37;;
77729;Laerm;68312;53.502;10.030;2023-12-20T00:10:25;105.38;103.01;107.21;;
77729;Laerm;68312;53.502;10.030;2023-12-20T00:10:56;103.46;98.41;107.26;;
77729;Laerm;68312;53.502;10.030;2023-12-20T00:11:26;104.90;99.79;110.97;;
77729;Laerm;68312;53.502;10.030;2023-12-20T00:11:57;103.97;98.97;106.55;;
77729;Laerm;68312;53.502;10.030;2023-12-20T00:12:27;104.02;98.82;106.54;;
77729;Laerm;68312;53.502;10.030;2023-12-20T00:12:58;104.06;99.86;108.45;;
77729;Laerm;68312;53.502;10.030;2023-12-20T00:13:28;102.56;96.58;105.69;;
77729;Laerm;68312;53.502;10.030;2023-12-20T00:13:59;101.67;96.95;105.41;;
77729;Laerm;68312;53.502;10.030;2023-12-20T00:14:29;101.43;96.42;105.73;;
77729;Laerm;68312;53.502;10.030;2023-12-20T00:15:00;99.86;92.90;105.53;;
77729;Laerm;68312;53.502;10.030;2023-12-20T00:15:30;98.81;93.83;102.64;;
77729;Laerm;68312;53.502;10.030;2023-12-20T00:16:01;100.53;95.76;104.71;;
77729;Laerm;68312;53.502;10.030;2023-12-20T00:16:31;98.37;93.30;103.47;;
77729;Laerm;68312;53.502;10.030;2023-12-20T00:17:02;100.98;95.39;104.62;;
77729;Laerm;68312;53.502;10.030;2023-12-20T00:17:32;99.44;91.51;104.33;;
77729;Laerm;68312;53.502;10.030;2023-12-20T00:18:03;97.24;90.93;101.59;;
77729;Laerm;68312;53.502;10.030;2023-12-20T00:18:34;98.61;92.29;103.47;;
77729;Laerm;68312;53.502;10.030;2023-12-20T00:19:04;101.99;96.67;106.02;;
77729;Laerm;68312;53.502;10.030;2023-12-20T00:19:35;98.43;91.10;103.56;;
77729;Laerm;68312;53.502;10.030;2023-12-20T00:20:07;97.67;91.73;103.11;;
77729;Laerm;68312;53.502;10.030;2023-12-20T00:20:37;97.30;90.08;101.95;;
77729;Laerm;68312;53.502;10.030;2023-12-20T00:21:08;98.04;88.22;102.58;;
77729;Laerm;68312;53.502;10.030;2023-12-20T00:21:38;98.45;89.57;103.64;;
77729;Laerm;68312;53.502;10.030;2023-12-20T00:22:09;100.11;94.11;105.06;;
77729;Laerm;68312;53.502;10.030;2023-12-20T00:22:39;100.48;94.34;105.11;;
77729;Laerm;68312;53.502;10.030;2023-12-20T00:23:10;100.56;93.26;105.59;;
77729;Laerm;68312;53.502;10.030;2023-12-20T00:23:40;99.43;93.50;104.57;;
77729;Laerm;68312;53.502;10.030;2023-12-20T00:24:11;98.38;92.51;103.76;;
77729;Laerm;68312;53.502;10.030;2023-12-20T00:24:41;97.50;90.32;102.10;;
77729;Laerm;68312;53.502;10.030;2023-12-20T00:25:12;98.35;94.22;103.46;;
77729;Laerm;68312;53.502;10.030;2023-12-20T00:25:43;99.62;96.05;102.80;;
77729;Laerm;68312;53.502;10.030;2023-12-20T00:26:13;101.24;97.43;105.35;;
77729;Laerm;68312;53.502;10.030;2023-12-20T00:26:44;101.06;95.45;104.94;;
77729;Laerm;68312;53.502;10.030;2023-12-20T00:27:14;100.90;95.50;104.35;;
77729;Laerm;68312;53.502;10.030;2023-12-20T00:27:45;102.55;96.67;106.25;;
77729;Laerm;68312;53.502;10.030;2023-12-20T00:28:15;99.94;94.47;104.98;;
77729;Laerm;68312;53.502;10.030;2023-12-20T00:28:46;97.17;92.22;101.84;;
77729;Laerm;68312;53.502;10.030;2023-12-20T00:29:16;98.83;90.65;103.14;;
77729;Laerm;68312;53.502;10.030;2023-12-20T00:29:47;96.86;92.48;101.13;;
77729;Laerm;68312;53.502;10.030;2023-12-20T00:30:20;100.20;95.51;104.41;;
77729;Laerm;68312;53.502;10.030;2023-12-20T00:30:50;101.92;96.18;105.51;;
77729;Laerm;68312;53.502;10.030;2023-12-20T00:31:21;101.09;94.42;105.68;;
77729;Laerm;68312;53.502;10.030;2023-12-20T00:31:51;101.42;97.69;105.46;;
77729;Laerm;68312;53.502;10.030;2023-12-20T00:32:22;100.98;96.55;105.01;;
77729;Laerm;68312;53.502;10.030;2023-12-20T00:32:52;103.31;99.57;106.81;;
77729;Laerm;68312;53.502;10.030;2023-12-20T00:33:23;104.79;99.04;106.68;;
77729;Laerm;68312;53.502;10.030;2023-12-20T00:33:53;104.70;100.78;106.52;;
77729;Laerm;68312;53.502;10.030;2023-12-20T00:34:24;103.93;100.33;106.06;;
77729;Laerm;68312;53.502;10.030;2023-12-20T00:34:55;104.48;99.09;106.76;;
77729;Laerm;68312;53.502;10.030;2023-12-20T00:35:25;105.51;102.36;107.50;;
77729;Laerm;68312;53.502;10.030;2023-12-20T00:35:57;104.35;99.61;107.11;;
77729;Laerm;68312;53.502;10.030;2023-12-20T00:36:27;104.49;100.40;106.67;;
77729;Laerm;68312;53.502;10.030;2023-12-20T00:36:57;105.18;101.72;106.73;;
77729;Laerm;68312;53.502;10.030;2023-12-20T00:37:28;105.50;101.24;107.80;;
77729;Laerm;68312;53.502;10.030;2023-12-20T00:37:59;105.77;102.04;108.95;;
77729;Laerm;68312;53.502;10.030;2023-12-20T00:38:29;105.16;101.40;106.77;;
77729;Laerm;68312;53.502;10.030;2023-12-20T00:39:00;104.95;100.60;106.88;;
77729;Laerm;68312;53.502;10.030;2023-12-20T00:39:30;105.36;102.01;108.02;;
77729;Laerm;68312;53.502;10.030;2023-12-20T00:40:01;106.02;103.27;109.05;;
77729;Laerm;68312;53.502;10.030;2023-12-20T00:40:31;106.03;103.79;108.79;;
77729;Laerm;68312;53.502;10.030;2023-12-20T00:41:02;105.67;103.54;107.13;;
77729;Laerm;68312;53.502;10.030;2023-12-20T00:41:33;105.59;102.43;108.23;;
77729;Laerm;68312;53.502;10.030;2023-12-20T00:42:03;105.69;102.69;107.79;;
77729;Laerm;68312;53.502;10.030;2023-12-20T00:42:35;106.29;104.09;109.75;;
77729;Laerm;68312;53.502;10.030;2023-12-20T00:43:08;105.64;101.79;107.55;;
77729;Laerm;68312;53.502;10.030;2023-12-20T00:43:39;106.18;103.96;110.30;;
77729;Laerm;68312;53.502;10.030;2023-12-20T00:44:09;106.45;103.50;110.72;;
77729;Laerm;68312;53.502;10.030;2023-12-20T00:44:40;105.73;102.73;107.85;;
77729;Laerm;68312;53.502;10.030;2023-12-20T00:45:10;105.69;101.46;108.81;;
77729;Laerm;68312;53.502;10.030;2023-12-20T00:45:41;105.99;103.65;109.26;;
77729;Laerm;68312;53.502;10.030;2023-12-20T00:46:11;105.29;100.78;109.01;;
77729;Laerm;68312;53.502;10.030;2023-12-20T00:46:42;103.54;99.46;106.43;;
77729;Laerm;68312;53.502;10.030;2023-12-20T00:47:12;102.05;98.00;105.94;;
77729;Laerm;68312;53.502;10.030;2023-12-20T00:47:43;101.93;97.84;105.12;;
77729;Laerm;68312;53.502;10.030;2023-12-20T00:48:14;100.80;97.51;104.11;;
77729;Laerm;68312;53.502;10.030;2023-12-20T00:48:44;100.82;97.54;104.37;;
77729;Laerm;68312;53.502;10.030;2023-12-20T00:49:15;100.91;96.97;104.38;;
77729;Laerm;68312;53.502;10.030;2023-12-20T00:49:46;102.00;97.23;105.48;;
77729;Laerm;68312;53.502;10.030;2023-12-20T00:50:16;102.18;97.99;105.83;;
77729;Laerm;68312;53.502;10.030;2023-12-20T00:50:47;103.33;99.14;106.01;;
77729;Laerm;68312;53.502;10.030;2023-12-20T00:51:17;102.76;99.15;105.69;;
77729;Laerm;68312;53.502;10.030;2023-12-20T00:51:48;103.24;99.64;105.40;;
77729;Laerm;68312;53.502;10.030;2023-12-20T00:52:20;103.41;99.90;105.86;;
77729;Laerm;68312;53.502;10.030;2023-12-20T00:52:52;103.14;98.31;105.92;;
77729;Laerm;68312;53.502;10.030;2023-12-20T00:53:25;104.02;100.34;105.99;;
77729;Laerm;68312;53.502;10.030;2023-12-20T00:53:55;104.08;100.08;106.16;;
77729;Laerm;68312;53.502;10.030;2023-12-20T00:54:26;104.71;101.18;106.55;;
77729;Laerm;68312;53.502;10.030;2023-12-20T00:54:56;104.44;101.30;106.09;;
77729;Laerm;68312;53.502;10.030;2023-12-20T00:55:26;105.00;101.91;106.84;;
77729;Laerm;68312;53.502;10.030;2023-12-20T00:55:57;105.63;103.54;108.89;;
77729;Laerm;68312;53.502;10.030;2023-12-20T00:56:29;105.50;103.19;106.92;;
77729;Laerm;68312;53.502;10.030;2023-12-20T00:56:59;105.25;101.32;109.48;;
77729;Laerm;68312;53.502;10.030;2023-12-20T00:57:30;105.04;101.30;106.67;;
77729;Laerm;68312;53.502;10.030;2023-12-20T00:58:01;105.44;102.33;106.82;;
77729;Laerm;68312;53.502;10.030;2023-12-20T00:58:32;105.09;101.56;107.02;;
77729;Laerm;68312;53.502;10.030;2023-12-20T00:59:02;105.41;103.02;107.19;;
77729;Laerm;68312;53.502;10.030;2023-12-20T00:59:33;105.54;103.31;108.45;;
77729;Laerm;68312;53.502;10.030;2023-12-20T01:00:04;105.43;102.59;107.19;;
77729;Laerm;68312;53.502;10.030;2023-12-20T01:00:35;104.84;101.45;106.30;;
77729;Laerm;68312;53.502;10.030;2023-12-20T01:01:05;104.97;102.57;106.37;;
77729;Laerm;68312;53.502;10.030;2023-12-20T01:01:36;105.19;103.09;106.61;;
77729;Laerm;68312;53.502;10.030;2023-12-20T01:02:07;105.25;102.43;106.72;;
77729;Laerm;68312;53.502;10.030;2023-12-20T01:02:37;105.64;103.65;107.64;;
77729;Laerm;68312;53.502;10.030;2023-12-20T01:03:08;105.95;104.73;108.43;;
77729;Laerm;68312;53.502;10.030;2023-12-20T01:03:38;105.83;103.85;107.69;;
77729;Laerm;68312;53.502;10.030;2023-12-20T01:04:09;105.96;103.33;108.77;;
77729;Laerm;68312;53.502;10.030;2023-12-20T01:04:40;105.70;102.86;109.53;;
77729;Laerm;68312;53.502;10.030;2023-12-20T01:05:10;105.76;103.25;108.91;;
77729;Laerm;68312;53.502;10.030;2023-12-20T01:05:41;105.23;102.57;108.23;;
77729;Laerm;68312;53.502;10.030;2023-12-20T01:06:11;106.01;104.38;108.56;;
77729;Laerm;68312;53.502;10.030;2023-12-20T01:06:42;106.19;103.83;109.36;;
77729;Laerm;68312;53.502;10.030;2023-12-20T01:07:12;106.23;104.44;109.49;;
77729;Laerm;68312;53.502;10.030;2023-12-20T01:07:43;105.95;104.45;111.25;;
77729;Laerm;68312;53.502;10.030;2023-12-20T01:08:13;108.17;105.25;111.70;;
77729;Laerm;68312;53.502;10.030;2023-12-20T01:08:44;106.53;104.81;109.46;;
77729;Laerm;68312;53.502;10.030;2023-12-20T01:09:15;106.30;104.32;109.64;;
77729;Laerm;68312;53.502;10.030;2023-12-20T01:09:45;106.56;105.15;111.17;;
77729;Laerm;68312;53.502;10.030;2023-12-20T01:10:16;106.03;104.44;109.38;;
77729;Laerm;68312;53.502;10.030;2023-12-20T01:10:47;106.06;104.62;108.57;;
77729;Laerm;68312;53.502;10.030;2023-12-20T01:11:17;106.33;104.74;109.78;;
77729;Laerm;68312;53.502;10.030;2023-12-20T01:11:48;107.58;104.15;111.80;;
77729;Laerm;68312;53.502;10.030;2023-12-20T01:12:19;108.62;105.63;111.54;;
77729;Laerm;68312;53.502;10.030;2023-12-20T01:12:50;108.46;104.15;111.78;;
77729;Laerm;68312;53.502;10.030;2023-12-20T01:13:21;106.04;104.26;110.52;;
77729;Laerm;68312;53.502;10.030;2023-12-20T01:13:51;106.40;104.71;110.03;;
77729;Laerm;68312;53.502;10.030;2023-12-20T01:14:22;106.64;104.89;110.66;;
77729;Laerm;68312;53.502;10.030;2023-12-20T01:14:52;106.06;103.60;108.76;;
77729;Laerm;68312;53.502;10.030;2023-12-20T01:15:23;106.44;104.65;110.17;;
77729;Laerm;68312;53.502;10.030;2023-12-20T01:15:53;106.14;104.00;109.31;;
77729;Laerm;68312;53.502;10.030;2023-12-20T01:16:24;105.52;102.13;107.71;;
77729;Laerm;68312;53.502;10.030;2023-12-20T01:16:54;105.69;102.42;109.18;;
77729;Laerm;68312;53.502;10.030;2023-12-20T01:17:25;106.06;102.42;109.43;;
77729;Laerm;68312;53.502;10.030;2023-12-20T01:17:55;104.93;101.10;107.32;;
77729;Laerm;68312;53.502;10.030;2023-12-20T01:18:27;105.68;103.37;107.74;;
77729;Laerm;68312;53.502;10.030;2023-12-20T01:18:58;105.33;101.36;108.06;;
77729;Laerm;68312;53.502;10.030;2023-12-20T01:19:29;105.04;100.75;106.80;;
77729;Laerm;68312;53.502;10.030;2023-12-20T01:20:00;105.33;101.63;106.44;;
77729;Laerm;68312;53.502;10.030;2023-12-20T01:20:31;105.43;101.79;107.95;;
77729;Laerm;68312;53.502;10.030;2023-12-20T01:21:02;105.48;103.28;106.56;;
77729;Laerm;68312;53.502;10.030;2023-12-20T01:21:34;105.34;101.87;107.26;;
77729;Laerm;68312;53.502;10.030;2023-12-20T01:22:04;105.37;102.03;108.51;;
77729;Laerm;68312;53.502;10.030;2023-12-20T01:22:35;105.33;101.96;107.55;;
77729;Laerm;68312;53.502;10.030;2023-12-20T01:23:06;105.43;101.71;109.07;;
77729;Laerm;68312;53.502;10.030;2023-12-20T01:23:36;105.14;100.80;109.47;;
77729;Laerm;68312;53.502;10.030;2023-12-20T01:24:07;105.83;100.32;108.63;;
77729;Laerm;68312;53.502;10.030;2023-12-20T01:24:37;104.35;100.31;107.32;;
77729;Laerm;68312;53.502;10.030;2023-12-20T01:25:08;103.41;99.66;106.21;;
77729;Laerm;68312;53.502;10.030;2023-12-20T01:25:39;102.74;98.89;106.08;;
77729;Laerm;68312;53.502;10.030;2023-12-20T01:26:09;103.39;99.80;105.87;;
77729;Laerm;68312;53.502;10.030;2023-12-20T01:26:40;105.27;102.76;106.82;;
77729;Laerm;68312;53.502;10.030;2023-12-20T01:27:10;105.41;101.46;108.49;;
77729;Laerm;68312;53.502;10.030;2023-12-20T01:27:41;105.52;102.50;107.64;;
77729;Laerm;68312;53.502;10.030;2023-12-20T01:28:11;106.11;100.47;110.48;;
77729;Laerm;68312;53.502;10.030;2023-12-20T01:28:42;106.04;102.99;110.31;;
77729;Laerm;68312;53.502;10.030;2023-12-20T01:29:13;107.50;104.78;112.28;;
77729;Laerm;68312;53.502;10.030;2023-12-20T01:29:44;105.31;101.24;107.61;;
77729;Laerm;68312;53.502;10.030;2023-12-20T01:30:15;104.44;100.96;106.60;;
77729;Laerm;68312;53.502;10.030;2023-12-20T01:30:45;105.64;102.24;109.06;;
77729;Laerm;68312;53.502;10.030;2023-12-20T01:31:16;106.58;102.90;110.99;;
77729;Laerm;68312;53.502;10.030;2023-12-20T01:31:46;105.00;100.00;108.10;;
77729;Laerm;68312;53.502;10.030;2023-12-20T01:32:17;103.09;99.14;106.61;;
77729;Laerm;68312;53.502;10.030;2023-12-20T01:32:47;104.54;100.81;107.49;;
77729;Laerm;68312;53.502;10.030;2023-12-20T01:33:17;105.17;100.65;107.39;;
77729;Laerm;68312;53.502;10.030;2023-12-20T01:33:48;104.33;99.49;106.74;;
77729;Laerm;68312;53.502;10.030;2023-12-20T01:34:18;103.29;98.35;106.61;;
77729;Laerm;68312;53.502;10.030;2023-12-20T01:34:49;103.35;99.62;106.36;;
77729;Laerm;68312;53.502;10.030;2023-12-20T01:35:19;102.82;99.35;105.76;;
77729;Laerm;68312;53.502;10.030;2023-12-20T01:35:50;100.86;96.55;104.65;;
77729;Laerm;68312;53.502;10.030;2023-12-20T01:36:20;100.46;96.92;104.24;;
77729;Laerm;68312;53.502;10.030;2023-12-20T01:36:51;102.88;98.62;105.63;;
77729;Laerm;68312;53.502;10.030;2023-12-20T01:37:21;103.52;99.52;106.07;;
77729;Laerm;68312;53.502;10.030;2023-12-20T01:37:54;102.44;97.82;105.50;;
77729;Laerm;68312;53.502;10.030;2023-12-20T01:38:27;102.36;96.96;105.86;;
77729;Laerm;68312;53.502;10.030;2023-12-20T01:38:58;100.26;95.24;103.78;;
77729;Laerm;68312;53.502;10.030;2023-12-20T01:39:28;98.61;94.68;101.64;;
77729;Laerm;68312;53.502;10.030;2023-12-20T01:39:58;98.00;93.44;102.25;;
77729;Laerm;68312;53.502;10.030;2023-12-20T01:40:29;97.12;92.77;101.76;;
77729;Laerm;68312;53.502;10.030;2023-12-20T01:41:00;102.77;95.87;105.85;;
77729;Laerm;68312;53.502;10.030;2023-12-20T01:41:30;101.49;96.41;105.49;;
77729;Laerm;68312;53.502;10.030;2023-12-20T01:42:01;99.85;95.33;103.78;;
77729;Laerm;68312;53.502;10.030;2023-12-20T01:42:31;99.54;95.15;104.52;;
77729;Laerm;68312;53.502;10.030;2023-12-20T01:43:08;98.53;92.66;103.91;;
77729;Laerm;68312;53.502;10.030;2023-12-20T01:43:39;96.91;92.00;99.75;;
77729;Laerm;68312;53.502;10.030;2023-12-20T01:44:10;98.65;92.95;101.42;;
77729;Laerm;68312;53.502;10.030;2023-12-20T01:44:40;98.00;90.39;101.60;;
77729;Laerm;68312;53.502;10.030;2023-12-20T01:45:11;97.95;92.36;102.12;;
77729;Laerm;68312;53.502;10.030;2023-12-20T01:45:41;98.00;93.17;102.02;;
77729;Laerm;68312;53.502;10.030;2023-12-20T01:46:12;96.14;91.36;101.18;;
77729;Laerm;68312;53.502;10.030;2023-12-20T01:46:43;97.60;93.02;101.37;;
77729;Laerm;68312;53.502;10.030;2023-12-20T01:47:13;96.85;91.85;101.83;;
77729;Laerm;68312;53.502;10.030;2023-12-20T01:47:44;95.04;89.48;98.82;;
77729;Laerm;68312;53.502;10.030;2023-12-20T01:48:16;97.03;93.04;100.03;;
77729;Laerm;68312;53.502;10.030;2023-12-20T01:48:48;98.51;94.43;102.48;;
77729;Laerm;68312;53.502;10.030;2023-12-20T01:49:19;98.93;94.59;102.49;;
77729;Laerm;68312;53.502;10.030;2023-12-20T01:49:50;97.69;91.42;101.89;;
77729;Laerm;68312;53.502;10.030;2023-12-20T01:50:21;95.94;90.85;100.29;;
77729;Laerm;68312;53.502;10.030;2023-12-20T01:50:54;99.03;93.22;104.84;;
77729;Laerm;68312;53.502;10.030;2023-12-20T01:51:25;101.66;97.42;105.07;;
77729;Laerm;68312;53.502;10.030;2023-12-20T01:51:57;99.57;95.19;104.80;;
77729;Laerm;68312;53.502;10.030;2023-12-20T01:52:28;99.95;94.72;105.44;;
77729;Laerm;68312;53.502;10.030;2023-12-20T01:53:00;98.42;92.17;102.28;;
77729;Laerm;68312;53.502;10.030;2023-12-20T01:53:32;96.92;92.53;99.78;;
77729;Laerm;68312;53.502;10.030;2023-12-20T01:54:04;99.30;94.13;103.39;;
77729;Laerm;68312;53.502;10.030;2023-12-20T01:54:36;100.16;96.79;103.88;;
77729;Laerm;68312;53.502;10.030;2023-12-20T01:55:06;100.34;95.36;104.45;;
77729;Laerm;68312;53.502;10.030;2023-12-20T01:55:44;99.17;94.89;103.27;;
77729;Laerm;68312;53.502;10.030;2023-12-20T01:56:16;97.75;93.31;103.44;;
77729;Laerm;68312;53.502;10.030;2023-12-20T01:56:49;99.60;93.84;105.21;;
77729;Laerm;68312;53.502;10.030;2023-12-20T01:57:21;101.94;97.43;105.81;;
77729;Laerm;68312;53.502;10.030;2023-12-20T01:57:51;100.50;94.73;104.49;;
77729;Laerm;68312;53.502;10.030;2023-12-20T01:58:23;100.32;94.77;104.40;;
77729;Laerm;68312;53.502;10.030;2023-12-20T01:58:55;97.95;90.14;102.74;;
77729;Laerm;68312;53.502;10.030;2023-12-20T01:59:26;97.98;92.04;104.10;;
77729;Laerm;68312;53.502;10.030;2023-12-20T01:59:58;97.86;91.47;103.13;;
77729;Laerm;68312;53.502;10.030;2023-12-20T02:00:30;96.83;91.86;102.21;;
77729;Laerm;68312;53.502;10.030;2023-12-20T02:01:01;99.78;94.45;103.97;;
77729;Laerm;68312;53.502;10.030;2023-12-20T02:01:32;99.16;95.05;103.43;;
77729;Laerm;68312;53.502;10.030;2023-12-20T02:02:03;98.25;92.34;103.85;;
77729;Laerm;68312;53.502;10.030;2023-12-20T02:02:37;97.59;90.07;102.23;;
77729;Laerm;68312;53.502;10.030;2023-12-20T02:03:09;98.48;93.59;103.01;;
77729;Laerm;68312;53.502;10.030;2023-12-20T02:03:42;97.51;92.52;100.88;;
77729;Laerm;68312;53.502;10.030;2023-12-20T02:04:13;97.73;93.02;101.17;;
77729;Laerm;68312;53.502;10.030;2023-12-20T02:04:44;95.01;90.09;99.99;;
77729;Laerm;68312;53.502;10.030;2023-12-20T02:05:16;95.59;88.67;100.19;;
77729;Laerm;68312;53.502;10.030;2023-12-20T02:05:48;97.77;90.26;102.54;;
77729;Laerm;68312;53.502;10.030;2023-12-20T02:06:23;99.39;92.49;104.15;;
77729;Laerm;68312;53.502;10.030;2023-12-20T02:06:56;100.12;93.75;104.91;;
77729;Laerm;68312;53.502;10.030;2023-12-20T02:07:27;100.12;94.02;105.03;;
77729;Laerm;68312;53.502;10.030;2023-12-20T02:07:58;98.70;93.17;104.08;;
77729;Laerm;68312;53.502;10.030;2023-12-20T02:08:29;99.61;95.50;102.96;;
77729;Laerm;68312;53.502;10.030;2023-12-20T02:09:00;98.62;92.39;102.30;;
77729;Laerm;68312;53.502;10.030;2023-12-20T02:09:30;97.39;92.06;101.85;;
77729;Laerm;68312;53.502;10.030;2023-12-20T02:10:02;99.99;95.77;103.37;;
77729;Laerm;68312;53.502;10.030;2023-12-20T02:10:33;100.24;95.05;104.48;;
77729;Laerm;68312;53.502;10.030;2023-12-20T02:11:04;99.09;93.15;104.03;;
77729;Laerm;68312;53.502;10.030;2023-12-20T02:11:35;97.10;90.68;101.62;;
77729;Laerm;68312;53.502;10.030;2023-12-20T02:12:06;96.05;91.49;100.06;;
77729;Laerm;68312;53.502;10.030;2023-12-20T02:12:37;98.41;92.68;102.97;;
77729;Laerm;68312;53.502;10.030;2023-12-20T02:13:07;97.63;91.94;102.18;;
77729;Laerm;68312;53.502;10.030;2023-12-20T02:13:38;98.20;94.22;103.01;;
77729;Laerm;68312;53.502;10.030;2023-12-20T02:14:08;98.60;93.50;104.03;;
77729;Laerm;68312;53.502;10.030;2023-12-20T02:14:39;97.78;92.53;101.96;;
77729;Laerm;68312;53.502;10.030;2023-12-20T02:15:10;97.81;92.10;103.33;;
77729;Laerm;68312;53.502;10.030;2023-12-20T02:15:40;100.53;92.87;104.49;;
77729;Laerm;68312;53.502;10.030;2023-12-20T02:16:13;99.34;94.49;104.70;;
77729;Laerm;68312;53.502;10.030;2023-12-20T02:16:44;100.06;96.41;104.67;;
77729;Laerm;68312;53.502;10.030;2023-12-20T02:17:16;101.31;94.91;105.81;;
77729;Laerm;68312;53.502;10.030;2023-12-20T02:17:47;102.36;97.66;105.35;;
77729;Laerm;68312;53.502;10.030;2023-12-20T02:18:18;102.67;98.83;105.31;;
77729;Laerm;68312;53.502;10.030;2023-12-20T02:18:49;101.54;96.15;105.26;;
77729;Laerm;68312;53.502;10.030;2023-12-20T02:19:20;101.12;95.61;104.94;;
77729;Laerm;68312;53.502;10.030;2023-12-20T02:19:50;100.37;95.45;104.01;;
77729;Laerm;68312;53.502;10.030;2023-12-20T02:20:21;98.06;91.97;102.33;;
77729;Laerm;68312;53.502;10.030;2023-12-20T02:20:52;98.31;90.77;103.15;;
77729;Laerm;68312;53.502;10.030;2023-12-20T02:21:32;97.53;89.31;105.92;;
77729;Laerm;68312;53.502;10.030;2023-12-20T02:22:11;100.29;92.41;106.19;;
77729;Laerm;68312;53.502;10.030;2023-12-20T02:22:42;100.82;96.17;104.74;;
77729;Laerm;68312;53.502;10.030;2023-12-20T02:23:12;101.33;97.26;105.20;;
77729;Laerm;68312;53.502;10.030;2023-12-20T02:23:43;100.71;95.05;104.39;;
77729;Laerm;68312;53.502;10.030;2023-12-20T02:24:13;102.80;96.38;106.20;;
77729;Laerm;68312;53.502;10.030;2023-12-20T02:24:44;100.33;95.58;104.55;;
77729;Laerm;68312;53.502;10.030;2023-12-20T02:25:14;101.33;94.07;105.03;;
77729;Laerm;68312;53.502;10.030;2023-12-20T02:25:45;101.40;96.49;105.49;;
77729;Laerm;68312;53.502;10.030;2023-12-20T02:26:16;99.71;93.01;105.12;;
77729;Laerm;68312;53.502;10.030;2023-12-20T02:26:47;99.00;93.17;103.53;;
77729;Laerm;68312;53.502;10.030;2023-12-20T02:27:19;99.48;93.19;104.00;;
77729;Laerm;68312;53.502;10.030;2023-12-20T02:27:50;99.15;93.95;102.42;;
77729;Laerm;68312;53.502;10.030;2023-12-20T02:28:21;98.60;92.27;103.07;;
77729;Laerm;68312;53.502;10.030;2023-12-20T02:28:53;98.41;89.89;103.32;;
77729;Laerm;68312;53.502;10.030;2023-12-20T02:29:23;95.90;90.41;99.78;;
77729;Laerm;68312;53.502;10.030;2023-12-20T02:29:54;96.09;90.34;99.90;;
77729;Laerm;68312;53.502;10.030;2023-12-20T02:30:24;96.92;90.77;102.41;;
77729;Laerm;68312;53.502;10.030;2023-12-20T02:30:55;99.82;95.00;104.73;;
77729;Laerm;68312;53.502;10.030;2023-12-20T02:31:25;101.27;96.52;104.72;;
77729;Laerm;68312;53.502;10.030;2023-12-20T02:31:56;102.06;98.02;105.71;;
77729;Laerm;68312;53.502;10.030;2023-12-20T02:32:27;99.88;94.33;104.13;;
77729;Laerm;68312;53.502;10.030;2023-12-20T02:33:00;96.32;91.41;100.85;;
77729;Laerm;68312;53.502;10.030;2023-12-20T02:33:31;98.54;93.08;102.63;;
77729;Laerm;68312;53.502;10.030;2023-12-20T02:34:02;98.94;91.49;103.44;;
77729;Laerm;68312;53.502;10.030;2023-12-20T02:34:32;100.43;94.45;104.48;;
77729;Laerm;68312;53.502;10.030;2023-12-20T02:35:03;100.08;93.61;105.46;;
77729;Laerm;68312;53.502;10.030;2023-12-20T02:35:33;100.02;94.27;103.89;;
77729;Laerm;68312;53.502;10.030;2023-12-20T02:36:04;99.41;93.07;104.83;;
77729;Laerm;68312;53.502;10.030;2023-12-20T02:36:35;96.31;91.20;100.72;;
77729;Laerm;68312;53.502;10.030;2023-12-20T02:37:05;95.36;90.85;99.09;;
77729;Laerm;68312;53.502;10.030;2023-12-20T02:37:35;93.86;86.96;97.70;;
77729;Laerm;68312;53.502;10.030;2023-12-20T02:38:06;93.48;86.89;97.41;;
77729;Laerm;68312;53.502;10.030;2023-12-20T02:38:36;92.58;87.50;97.49;;
77729;Laerm;68312;53.502;10.030;2023-12-20T02:39:07;93.38;87.98;97.46;;
77729;Laerm;68312;53.502;10.030;2023-12-20T02:39:38;95.19;89.41;99.28;;
77729;Laerm;68312;53.502;10.030;2023-12-20T02:40:09;95.33;90.26;101.52;;
77729;Laerm;68312;53.502;10.030;2023-12-20T02:40:40;95.20;91.04;98.01;;
77729;Laerm;68312;53.502;10.030;2023-12-20T02:41:11;95.22;90.41;98.94;;
77729;Laerm;68312;53.502;10.030;2023-12-20T02:41:41;93.96;89.11;97.97;;
77729;Laerm;68312;53.502;10.030;2023-12-20T02:42:12;94.91;91.01;99.39;;
77729;Laerm;68312;53.502;10.030;2023-12-20T02:42:42;95.89;91.73;98.99;;
77729;Laerm;68312;53.502;10.030;2023-12-20T02:43:13;95.96;92.01;99.70;;
77729;Laerm;68312;53.502;10.030;2023-12-20T02:43:43;97.12;91.67;100.40;;
77729;Laerm;68312;53.502;10.030;2023-12-20T02:44:14;97.62;92.39;101.84;;
77729;Laerm;68312;53.502;10.030;2023-12-20T02:44:45;96.54;92.82;99.40;;
77729;Laerm;68312;53.502;10.030;2023-12-20T02:45:15;96.35;92.81;99.42;;
77729;Laerm;68312;53.502;10.030;2023-12-20T02:45:46;97.31;92.68;102.41;;
77729;Laerm;68312;53.502;10.030;2023-12-20T02:46:17;98.07;94.00;101.83;;